Angleton, Texas
Current Conditions -  °F | °C
As of 7:53 AM on Friday 24 Oct 2014 (Local Time) from KLBX Reporting Station
Haze Haze  
Wind Chill: 54°   Ceiling: Unl
Heat Index: 54°   Visibility: 5mi
Dew Point: 54°   Wind: 5mph
Humidity: 100%   Direction: 20°NNE
Pressure: 30.13"   Gusts: NA
Location:  29.16°N, 95.43°W
Report Text: KLBX 241253Z AUTO 02004KT 5SM BR CLR 12/12 A3013 RMK AO2 SLP203 T01220122
Loading
Personal Weather Stations






























Interactive Weather Map
Tropical Storm Tracking
New forecast layout! Learn more

10-Day Weather Forecast

Advertisements
Track Severe Weather on mobile